createdAt,value
2019-02-22T00:00:02.078Z,65.80
2019-02-22T00:01:02.056Z,66.90
2019-02-22T00:02:02.041Z,65.80
2019-02-22T00:03:02.014Z,64.60
2019-02-22T00:04:01.998Z,62.80
2019-02-22T00:05:01.970Z,63.80
2019-02-22T00:06:01.945Z,65.60
2019-02-22T00:07:01.938Z,64.00
2019-02-22T00:08:01.909Z,62.80
2019-02-22T00:09:01.881Z,64.50
2019-02-22T00:10:01.860Z,66.00
2019-02-22T00:11:01.833Z,63.40
2019-02-22T00:12:01.813Z,66.30
2019-02-22T00:13:01.792Z,64.20
2019-02-22T00:14:01.766Z,64.90
2019-02-22T00:15:01.743Z,64.30
2019-02-22T00:16:01.724Z,61.70
2019-02-22T00:17:01.706Z,64.50
2019-02-22T00:18:01.679Z,62.70
2019-02-22T00:19:01.659Z,60.60
2019-02-22T00:20:01.645Z,63.30
2019-02-22T00:21:01.613Z,60.30
2019-02-22T00:22:01.589Z,63.70
2019-02-22T00:23:01.568Z,63.40
2019-02-22T00:24:01.545Z,62.90
2019-02-22T00:25:01.525Z,62.90
2019-02-22T00:26:01.499Z,61.60
2019-02-22T00:27:01.477Z,62.80
2019-02-22T00:28:01.464Z,60.80
2019-02-22T00:29:01.433Z,63.00
2019-02-22T00:30:01.412Z,62.60
2019-02-22T00:31:01.389Z,61.70
2019-02-22T00:32:01.365Z,62.20
2019-02-22T00:33:01.346Z,61.30
2019-02-22T00:34:01.330Z,61.50
2019-02-22T00:35:01.350Z,61.70
2019-02-22T00:36:01.302Z,60.90
2019-02-22T00:37:01.348Z,61.90
2019-02-22T00:38:01.230Z,61.90
2019-02-22T00:39:01.209Z,61.00
2019-02-22T00:40:01.200Z,60.40
2019-02-22T00:41:01.164Z,59.10
2019-02-22T00:42:01.145Z,60.00
2019-02-22T00:43:01.120Z,59.90
2019-02-22T00:44:01.097Z,60.70
2019-02-22T00:45:01.076Z,61.70
2019-02-22T00:46:01.056Z,56.60
2019-02-22T00:47:01.033Z,61.90
2019-02-22T00:48:01.009Z,61.30
2019-02-22T00:49:01.000Z,61.60
2019-02-22T00:50:00.965Z,61.60
2019-02-22T00:51:00.946Z,62.00
2019-02-22T00:52:00.921Z,59.70
2019-02-22T00:53:00.913Z,60.90
2019-02-22T00:54:00.886Z,57.80
2019-02-22T00:55:00.859Z,60.40
2019-02-22T00:56:00.835Z,60.30
2019-02-22T00:57:00.809Z,60.40
2019-02-22T00:58:00.789Z,59.70
2019-02-22T00:59:00.770Z,61.70
2019-02-22T01:00:00.765Z,60.00
2019-02-22T01:01:00.724Z,61.00
2019-02-22T01:02:00.699Z,62.40
2019-02-22T01:03:00.677Z,61.30
2019-02-22T01:04:00.655Z,62.50
2019-02-22T01:05:00.633Z,60.80
2019-02-22T01:06:00.609Z,61.30
2019-02-22T01:07:00.589Z,63.00
2019-02-22T01:08:00.566Z,61.00
2019-02-22T01:09:00.547Z,60.00
2019-02-22T01:10:00.527Z,62.60
2019-02-22T01:11:00.499Z,61.10
2019-02-22T01:12:00.479Z,62.80
2019-02-22T01:13:00.456Z,60.50
2019-02-22T01:14:00.442Z,59.10
2019-02-22T01:15:00.411Z,60.30
2019-02-22T01:16:00.387Z,61.30
2019-02-22T01:17:00.375Z,60.00
2019-02-22T01:18:00.344Z,61.80
2019-02-22T01:19:00.320Z,62.70
2019-02-22T01:20:00.306Z,61.30
2019-02-22T01:21:00.275Z,60.60
2019-02-22T01:22:00.254Z,62.90
2019-02-22T01:23:00.232Z,61.70
2019-02-22T01:24:00.208Z,63.90
2019-02-22T01:25:00.477Z,62.10
2019-02-22T01:26:00.165Z,60.80
2019-02-22T01:27:00.144Z,62.50
2019-02-22T01:28:00.122Z,62.30
2019-02-22T01:29:00.105Z,62.90
2019-02-22T01:30:00.113Z,62.00
2019-02-22T01:31:00.056Z,62.70
2019-02-22T01:32:00.032Z,62.00
2019-02-22T01:33:00.017Z,63.10
2019-02-22T01:33:59.994Z,60.50
2019-02-22T01:34:59.966Z,63.90
2019-02-22T01:35:59.944Z,61.80
2019-02-22T01:36:59.922Z,62.00
2019-02-22T01:37:59.904Z,64.00
2019-02-22T01:38:59.888Z,63.00
2019-02-22T01:39:59.855Z,61.30
2019-02-22T01:40:59.834Z,62.30
2019-02-22T01:41:59.817Z,60.20
2019-02-22T01:42:59.788Z,62.20
2019-02-22T01:43:59.767Z,60.60
2019-02-22T01:44:59.744Z,62.30
2019-02-22T01:45:59.721Z,63.00
2019-02-22T01:46:59.708Z,61.80
2019-02-22T01:47:59.679Z,61.00
2019-02-22T01:48:59.655Z,61.60
2019-02-22T01:49:59.633Z,61.40
2019-02-22T01:50:59.617Z,61.80
2019-02-22T01:51:59.589Z,62.10
2019-02-22T01:52:59.581Z,64.00
2019-02-22T01:53:59.547Z,65.00
2019-02-22T01:54:59.526Z,62.50
2019-02-22T01:55:59.512Z,60.70
2019-02-22T01:56:59.486Z,62.60
2019-02-22T01:57:59.460Z,63.00
2019-02-22T01:58:59.443Z,62.00
2019-02-22T01:59:59.420Z,62.50
2019-02-22T02:00:59.392Z,62.80
2019-02-22T02:01:59.368Z,61.50
2019-02-22T02:02:59.357Z,64.30
2019-02-22T02:03:59.338Z,61.70
2019-02-22T02:04:59.313Z,64.70
2019-02-22T02:05:59.302Z,63.50
2019-02-22T02:06:59.259Z,61.80
2019-02-22T02:07:59.246Z,62.90
2019-02-22T02:08:59.218Z,66.10
2019-02-22T02:09:59.192Z,63.40
2019-02-22T02:10:59.171Z,66.70
2019-02-22T02:12:01.699Z,65.90
2019-02-22T02:12:59.125Z,65.40
2019-02-22T02:13:59.107Z,67.60
2019-02-22T02:14:59.079Z,66.80
2019-02-22T02:15:59.057Z,65.30
2019-02-22T02:16:59.037Z,64.00
2019-02-22T02:17:59.024Z,66.50
2019-02-22T02:18:58.992Z,63.80
2019-02-22T02:19:58.992Z,67.00
2019-02-22T02:20:58.953Z,68.30
2019-02-22T02:21:58.928Z,64.80
2019-02-22T02:22:58.904Z,69.10
2019-02-22T02:23:58.884Z,65.10
2019-02-22T02:24:58.859Z,64.70
2019-02-22T02:25:58.844Z,66.10
2019-02-22T02:26:58.815Z,64.90
2019-02-22T02:27:58.795Z,63.90
2019-02-22T02:28:58.772Z,65.30
2019-02-22T02:29:58.749Z,66.10
2019-02-22T02:30:58.727Z,67.50
2019-02-22T02:31:58.710Z,68.20
2019-02-22T02:32:58.683Z,66.20
2019-02-22T02:33:58.662Z,63.80
2019-02-22T02:34:58.642Z,67.80
2019-02-22T02:35:58.625Z,64.70
2019-02-22T02:36:58.595Z,63.50
2019-02-22T02:37:58.573Z,67.50
2019-02-22T02:38:58.554Z,66.10
2019-02-22T02:39:58.528Z,67.20
2019-02-22T02:41:08.113Z,68.40
2019-02-22T02:41:58.485Z,66.50
2019-02-22T02:42:58.462Z,64.90
2019-02-22T02:43:58.442Z,68.60
2019-02-22T02:44:58.424Z,66.90
2019-02-22T02:45:58.405Z,66.50
2019-02-22T02:46:58.374Z,64.70
2019-02-22T02:47:58.358Z,66.30
2019-02-22T02:48:58.356Z,65.30
2019-02-22T02:49:58.318Z,64.30
2019-02-22T02:50:58.285Z,63.60
2019-02-22T02:51:58.264Z,63.20
2019-02-22T02:52:58.242Z,62.30
2019-02-22T02:53:58.233Z,61.80
2019-02-22T02:54:58.205Z,62.40
2019-02-22T02:55:58.182Z,62.30
2019-02-22T02:56:58.154Z,64.40
2019-02-22T02:57:58.136Z,61.80
2019-02-22T02:58:58.109Z,62.50
2019-02-22T02:59:58.091Z,62.90
2019-02-22T03:00:58.088Z,62.80
2019-02-22T03:01:58.044Z,62.80
2019-02-22T03:02:58.022Z,64.40
2019-02-22T03:03:58.001Z,64.90
2019-02-22T03:04:57.979Z,61.60
2019-02-22T03:05:58.002Z,64.10
2019-02-22T03:06:57.933Z,62.80
2019-02-22T03:07:58.014Z,64.90
2019-02-22T03:08:57.890Z,61.80
2019-02-22T03:09:57.866Z,63.80
2019-02-22T03:10:57.848Z,64.00
2019-02-22T03:11:57.823Z,62.20
2019-02-22T03:12:57.810Z,60.60
2019-02-22T03:13:57.781Z,61.60
2019-02-22T03:14:57.757Z,61.20
2019-02-22T03:15:57.734Z,60.40
2019-02-22T03:16:57.713Z,60.20
2019-02-22T03:17:57.693Z,62.40
2019-02-22T03:18:57.669Z,64.60
2019-02-22T03:19:57.646Z,63.90
2019-02-22T03:20:57.632Z,60.20
2019-02-22T03:21:57.607Z,63.60
2019-02-22T03:22:57.581Z,65.50
2019-02-22T03:23:57.558Z,64.50
2019-02-22T03:24:57.538Z,62.90
2019-02-22T03:25:57.512Z,64.80
2019-02-22T03:26:57.491Z,65.50
2019-02-22T03:27:57.475Z,65.80
2019-02-22T03:28:57.448Z,66.60
2019-02-22T03:29:57.426Z,65.80
2019-02-22T03:30:57.411Z,64.70
2019-02-22T03:31:57.384Z,65.10
2019-02-22T03:32:57.382Z,64.80
2019-02-22T03:33:57.356Z,63.80
2019-02-22T03:34:57.316Z,60.30
2019-02-22T03:35:57.292Z,65.10
2019-02-22T03:36:57.271Z,67.10
2019-02-22T03:37:57.251Z,65.60
2019-02-22T03:38:57.231Z,64.00
2019-02-22T03:39:57.214Z,63.50
2019-02-22T03:40:57.184Z,66.20
2019-02-22T03:41:57.161Z,65.40
2019-02-22T03:42:57.145Z,62.20
2019-02-22T03:43:57.119Z,64.50
2019-02-22T03:44:57.117Z,65.40
2019-02-22T03:45:57.085Z,66.10
2019-02-22T03:46:57.052Z,65.60
2019-02-22T03:47:57.031Z,62.60
2019-02-22T03:48:57.007Z,67.30
2019-02-22T03:49:56.990Z,66.50
2019-02-22T03:50:56.961Z,64.50
2019-02-22T03:51:56.952Z,66.90
2019-02-22T03:52:56.918Z,63.30
2019-02-22T03:53:57.683Z,65.00
2019-02-22T03:54:56.874Z,68.10
2019-02-22T03:55:56.853Z,66.10
2019-02-22T03:56:56.841Z,64.50
2019-02-22T03:57:56.809Z,64.70
2019-02-22T03:58:56.790Z,65.00
2019-02-22T03:59:56.761Z,64.40
2019-02-22T04:00:56.744Z,62.70
2019-02-22T04:01:56.719Z,64.00
2019-02-22T04:02:56.722Z,63.90
2019-02-22T04:03:56.677Z,63.90
2019-02-22T04:04:56.652Z,64.00
2019-02-22T04:05:56.632Z,63.90
2019-02-22T04:06:56.607Z,63.10
2019-02-22T04:07:56.587Z,63.60
2019-02-22T04:08:56.567Z,64.10
2019-02-22T04:09:56.540Z,64.90
2019-02-22T04:10:56.518Z,65.50
2019-02-22T04:11:56.496Z,63.50
2019-02-22T04:12:56.478Z,63.50
2019-02-22T04:13:56.456Z,61.40
2019-02-22T04:14:56.430Z,65.40
2019-02-22T04:15:56.415Z,64.50
2019-02-22T04:16:56.389Z,62.50
2019-02-22T04:17:56.367Z,67.20
2019-02-22T04:18:56.342Z,67.40
2019-02-22T04:19:56.345Z,62.50
2019-02-22T04:20:56.303Z,62.30
2019-02-22T04:21:56.276Z,60.30
2019-02-22T04:22:56.251Z,62.10
2019-02-22T04:23:56.229Z,60.40
2019-02-22T04:24:56.210Z,62.60
2019-02-22T04:25:56.189Z,61.40
2019-02-22T04:26:56.165Z,60.60
2019-02-22T04:27:56.142Z,61.80
2019-02-22T04:28:56.127Z,57.80
2019-02-22T04:29:56.101Z,60.30
2019-02-22T04:30:56.082Z,57.00
2019-02-22T04:31:56.052Z,58.90
2019-02-22T04:32:56.039Z,57.20
2019-02-22T04:33:56.010Z,60.40
2019-02-22T04:34:55.985Z,57.80
2019-02-22T04:35:55.965Z,57.50
2019-02-22T04:36:55.942Z,57.50
2019-02-22T04:37:55.921Z,57.90
2019-02-22T04:38:55.899Z,58.80
2019-02-22T04:39:55.884Z,57.30
2019-02-22T04:40:55.861Z,58.30
2019-02-22T04:41:58.323Z,57.20
2019-02-22T04:42:55.814Z,59.00
2019-02-22T04:43:55.837Z,58.00
2019-02-22T04:44:55.766Z,57.10
2019-02-22T04:45:55.741Z,56.10
2019-02-22T04:46:55.721Z,59.00
2019-02-22T04:47:55.702Z,59.80
2019-02-22T04:48:55.674Z,56.50
2019-02-22T04:49:55.654Z,58.90
2019-02-22T04:50:55.640Z,59.00
2019-02-22T04:51:55.612Z,55.10
2019-02-22T04:52:55.586Z,60.60
2019-02-22T04:53:55.571Z,60.50
2019-02-22T04:54:55.541Z,58.50
2019-02-22T04:55:55.518Z,56.80
2019-02-22T04:56:55.499Z,58.10
2019-02-22T04:57:55.478Z,60.10
2019-02-22T04:58:55.455Z,59.70
2019-02-22T04:59:55.435Z,58.50
2019-02-22T05:00:55.417Z,55.90
2019-02-22T05:01:55.386Z,55.60
2019-02-22T05:02:55.366Z,57.10
2019-02-22T05:03:55.348Z,56.60
2019-02-22T05:04:55.319Z,56.10
2019-02-22T05:05:55.307Z,56.20
2019-02-22T05:06:55.276Z,54.80
2019-02-22T05:07:55.257Z,55.40
2019-02-22T05:08:55.233Z,57.10
2019-02-22T05:09:55.209Z,59.20
2019-02-22T05:10:55.186Z,56.50
2019-02-22T05:11:55.164Z,61.00
2019-02-22T05:12:55.143Z,55.70
2019-02-22T05:13:55.127Z,55.50
2019-02-22T05:14:55.105Z,56.10
2019-02-22T05:15:55.077Z,57.30
2019-02-22T05:16:55.055Z,54.00
2019-02-22T05:17:55.033Z,55.50
2019-02-22T05:18:55.017Z,54.30
2019-02-22T05:19:54.988Z,56.20
2019-02-22T05:20:54.966Z,52.80
2019-02-22T05:21:54.942Z,54.20
2019-02-22T05:23:03.293Z,56.20
2019-02-22T05:23:54.901Z,55.90
2019-02-22T05:24:54.878Z,53.60
2019-02-22T05:25:54.860Z,53.80
2019-02-22T05:26:54.835Z,52.20
2019-02-22T05:27:54.814Z,54.10
2019-02-22T05:28:54.788Z,53.90
2019-02-22T05:29:54.773Z,52.90
2019-02-22T05:30:54.744Z,53.00
2019-02-22T05:31:54.723Z,52.70
2019-02-22T05:32:54.709Z,51.80
2019-02-22T05:33:54.678Z,53.00
2019-02-22T05:34:54.656Z,53.00
2019-02-22T05:35:54.635Z,52.60
2019-02-22T05:36:54.613Z,50.80
2019-02-22T05:37:54.593Z,50.70
2019-02-22T05:38:54.572Z,52.30
2019-02-22T05:39:54.545Z,51.00
2019-02-22T05:40:54.531Z,51.40
2019-02-22T05:41:54.503Z,51.80
2019-02-22T05:42:54.480Z,50.10
2019-02-22T05:43:54.459Z,50.70
2019-02-22T05:44:54.433Z,52.70
2019-02-22T05:45:54.413Z,50.90
2019-02-22T05:47:00.455Z,51.60
2019-02-22T05:47:54.370Z,51.30
2019-02-22T05:48:54.347Z,51.30
2019-02-22T05:49:54.325Z,52.80
2019-02-22T05:50:54.302Z,51.10
2019-02-22T05:51:54.284Z,51.40
2019-02-22T05:52:54.260Z,51.20
2019-02-22T05:53:54.243Z,51.10
2019-02-22T05:54:54.286Z,50.60
2019-02-22T05:55:54.297Z,50.20
2019-02-22T05:56:55.290Z,51.10
2019-02-22T05:57:54.151Z,47.40
2019-02-22T05:58:54.127Z,46.10
2019-02-22T05:59:54.108Z,48.80
2019-02-22T06:00:54.084Z,47.80
2019-02-22T06:01:54.064Z,48.90
2019-02-22T06:02:54.046Z,47.40
2019-02-22T06:03:54.026Z,48.00
2019-02-22T06:04:53.995Z,50.90
2019-02-22T06:05:53.973Z,50.50
2019-02-22T06:06:53.951Z,49.00
2019-02-22T06:07:53.929Z,48.00
2019-02-22T06:08:53.911Z,49.50
2019-02-22T06:09:53.889Z,47.90
2019-02-22T06:10:53.864Z,49.60
2019-02-22T06:11:53.842Z,47.40
2019-02-22T06:12:53.819Z,47.90
2019-02-22T06:13:53.799Z,46.80
2019-02-22T06:14:53.776Z,45.10
2019-02-22T06:15:53.755Z,44.80
2019-02-22T06:16:53.731Z,44.00
2019-02-22T06:17:53.711Z,46.40
2019-02-22T06:18:53.695Z,46.00
2019-02-22T06:19:53.670Z,44.90
2019-02-22T06:20:53.645Z,48.20
2019-02-22T06:21:53.622Z,49.30
2019-02-22T06:22:53.603Z,47.30
2019-02-22T06:23:53.578Z,47.80
2019-02-22T06:24:53.557Z,50.20
2019-02-22T06:25:53.541Z,49.90
2019-02-22T06:26:53.512Z,46.90
2019-02-22T06:27:53.490Z,50.70
2019-02-22T06:28:53.469Z,50.60
2019-02-22T06:29:53.450Z,49.60
2019-02-22T06:30:53.423Z,50.70
2019-02-22T06:31:53.402Z,51.30
2019-02-22T06:32:53.380Z,48.50
2019-02-22T06:33:53.367Z,49.20
2019-02-22T06:34:53.343Z,50.30
2019-02-22T06:35:53.317Z,49.90
2019-02-22T06:37:01.792Z,48.90
2019-02-22T06:37:53.271Z,50.80
2019-02-22T06:38:53.249Z,49.90
2019-02-22T06:39:53.227Z,53.60
2019-02-22T06:40:53.223Z,52.70
2019-02-22T06:41:53.181Z,51.20
2019-02-22T06:42:53.162Z,50.40
2019-02-22T06:43:53.148Z,51.30
2019-02-22T06:44:53.116Z,52.40
2019-02-22T06:45:53.100Z,53.10
2019-02-22T06:46:53.072Z,52.90
2019-02-22T06:47:53.049Z,54.30
2019-02-22T06:48:53.027Z,54.90
2019-02-22T06:49:53.004Z,53.10
2019-02-22T06:50:52.983Z,54.60
2019-02-22T06:51:52.990Z,51.80
2019-02-22T06:52:52.943Z,54.10
2019-02-22T06:53:52.919Z,56.00
2019-02-22T06:54:52.892Z,53.10
2019-02-22T06:55:52.871Z,52.10
2019-02-22T06:56:52.857Z,54.40
2019-02-22T06:57:52.827Z,54.70
2019-02-22T06:58:52.804Z,53.30
2019-02-22T06:59:52.785Z,52.50
2019-02-22T07:00:52.760Z,53.00
2019-02-22T07:01:52.740Z,52.40
2019-02-22T07:02:52.714Z,54.60
2019-02-22T07:03:52.701Z,54.40
2019-02-22T07:04:52.672Z,53.50
2019-02-22T07:05:52.651Z,56.80
2019-02-22T07:06:52.631Z,55.00
2019-02-22T07:07:52.618Z,55.40
2019-02-22T07:08:52.583Z,56.50
2019-02-22T07:09:52.577Z,56.00
2019-02-22T07:10:52.541Z,56.60
2019-02-22T07:11:52.516Z,58.00
2019-02-22T07:12:56.729Z,55.00
2019-02-22T07:13:52.475Z,55.60
2019-02-22T07:14:52.457Z,55.20
2019-02-22T07:15:52.430Z,57.10
2019-02-22T07:16:52.411Z,53.90
2019-02-22T07:17:52.386Z,55.60
2019-02-22T07:18:52.368Z,53.30
2019-02-22T07:19:52.347Z,54.90
2019-02-22T07:20:52.319Z,54.40
2019-02-22T07:21:53.239Z,57.80
2019-02-22T07:22:52.285Z,56.00
2019-02-22T07:23:52.256Z,53.90
2019-02-22T07:24:52.238Z,55.00
2019-02-22T07:25:52.217Z,54.30
2019-02-22T07:26:52.193Z,56.10
2019-02-22T07:27:52.169Z,56.10
2019-02-22T07:28:52.165Z,54.20
2019-02-22T07:29:52.122Z,57.90
2019-02-22T07:30:52.106Z,57.40
2019-02-22T07:31:52.078Z,53.40
2019-02-22T07:32:52.099Z,56.70
2019-02-22T07:33:52.031Z,54.80
2019-02-22T07:34:52.010Z,57.00
2019-02-22T07:35:51.989Z,57.10
2019-02-22T07:36:51.966Z,58.70
2019-02-22T07:37:51.946Z,59.20
2019-02-22T07:38:51.922Z,58.40
2019-02-22T07:39:51.901Z,57.90
2019-02-22T07:40:51.888Z,58.50
2019-02-22T07:41:51.856Z,56.90
2019-02-22T07:42:51.835Z,60.70
2019-02-22T07:43:51.813Z,59.70
2019-02-22T07:44:51.791Z,61.40
2019-02-22T07:45:51.769Z,62.50
2019-02-22T07:46:51.747Z,62.40
2019-02-22T07:47:51.729Z,62.90
2019-02-22T07:48:51.710Z,61.60
2019-02-22T07:49:51.682Z,61.30
2019-02-22T07:50:57.454Z,62.70
2019-02-22T07:51:51.637Z,60.40
2019-02-22T07:52:51.619Z,62.80
2019-02-22T07:53:51.594Z,63.20
2019-02-22T07:54:51.568Z,64.20
2019-02-22T07:55:51.552Z,62.50
2019-02-22T07:56:51.527Z,63.00
2019-02-22T07:57:51.506Z,66.10
2019-02-22T07:58:51.482Z,63.40
2019-02-22T07:59:51.460Z,65.90
2019-02-22T08:00:51.436Z,65.40
2019-02-22T08:01:51.416Z,64.00
2019-02-22T08:02:51.392Z,65.80
2019-02-22T08:03:51.371Z,65.20
2019-02-22T08:04:51.354Z,65.00
2019-02-22T08:05:51.331Z,65.10
2019-02-22T08:06:51.309Z,67.40
2019-02-22T08:07:51.285Z,65.10
2019-02-22T08:08:51.270Z,65.60
2019-02-22T08:09:51.247Z,65.30
2019-02-22T08:10:51.218Z,66.10
2019-02-22T08:11:51.202Z,69.20
2019-02-22T08:12:51.173Z,71.00
2019-02-22T08:13:51.158Z,71.10
2019-02-22T08:14:51.134Z,69.20
2019-02-22T08:15:51.115Z,68.50
2019-02-22T08:16:51.086Z,70.30
2019-02-22T08:17:51.064Z,70.60
2019-02-22T08:19:01.060Z,73.40
2019-02-22T08:19:51.022Z,67.90
2019-02-22T08:20:51.000Z,67.90
2019-02-22T08:21:50.975Z,69.20
2019-02-22T08:22:50.951Z,68.50
2019-02-22T08:23:50.930Z,68.00
2019-02-22T08:24:50.909Z,62.80
2019-02-22T08:25:50.890Z,65.90
2019-02-22T08:26:50.866Z,64.90
2019-02-22T08:27:54.004Z,66.90
2019-02-22T08:28:50.820Z,67.10
2019-02-22T08:29:50.804Z,64.40
2019-02-22T08:30:50.780Z,63.80
2019-02-22T08:31:50.760Z,65.00
2019-02-22T08:32:50.779Z,63.20
2019-02-22T08:33:50.716Z,65.80
2019-02-22T08:34:50.687Z,65.00
2019-02-22T08:35:50.663Z,61.20
2019-02-22T08:36:50.642Z,64.20
2019-02-22T08:37:50.621Z,62.90
2019-02-22T08:38:50.598Z,63.70
2019-02-22T08:39:58.703Z,65.20
2019-02-22T08:40:50.561Z,61.10
2019-02-22T08:41:50.537Z,62.70
2019-02-22T08:42:50.510Z,61.70
2019-02-22T08:43:50.488Z,61.30
2019-02-22T08:44:50.466Z,62.20
2019-02-22T08:45:50.447Z,63.10
2019-02-22T08:46:50.428Z,62.30
2019-02-22T08:47:50.402Z,63.70
2019-02-22T08:48:50.383Z,62.80
2019-02-22T08:49:50.356Z,62.70
2019-02-22T08:50:50.342Z,63.70
2019-02-22T08:51:50.309Z,60.10
2019-02-22T08:52:50.291Z,60.30
2019-02-22T08:53:50.268Z,60.20
2019-02-22T08:54:50.252Z,60.80
2019-02-22T08:55:50.224Z,58.80
2019-02-22T08:56:50.204Z,56.60
2019-02-22T08:57:50.184Z,56.60
2019-02-22T08:58:50.156Z,59.90
2019-02-22T08:59:50.137Z,60.30
2019-02-22T09:00:50.112Z,58.30
2019-02-22T09:01:50.095Z,59.40
2019-02-22T09:02:50.069Z,59.50
2019-02-22T09:03:51.239Z,60.60
2019-02-22T09:04:50.025Z,59.90
2019-02-22T09:05:50.010Z,57.50
2019-02-22T09:06:52.297Z,60.30
2019-02-22T09:07:49.959Z,59.60
2019-02-22T09:08:49.942Z,58.60
2019-02-22T09:09:49.927Z,57.80
2019-02-22T09:11:00.150Z,57.40
2019-02-22T09:11:49.879Z,59.30
2019-02-22T09:12:49.849Z,58.20
2019-02-22T09:13:49.838Z,56.70
2019-02-22T09:14:49.810Z,58.80
2019-02-22T09:15:49.787Z,53.60
2019-02-22T09:16:49.765Z,53.30
2019-02-22T09:17:49.745Z,54.00
2019-02-22T09:18:49.719Z,56.10
2019-02-22T09:19:49.712Z,58.10
2019-02-22T09:20:49.684Z,53.30
2019-02-22T09:21:49.653Z,54.10
2019-02-22T09:22:49.628Z,55.70
2019-02-22T09:23:49.612Z,54.50
2019-02-22T09:24:49.584Z,55.60
2019-02-22T09:25:49.562Z,52.10
2019-02-22T09:26:49.539Z,52.80
2019-02-22T09:27:49.635Z,52.80
2019-02-22T09:28:49.497Z,53.40
2019-02-22T09:29:58.458Z,53.00
2019-02-22T09:30:49.454Z,49.70
2019-02-22T09:31:49.430Z,51.00
2019-02-22T09:32:49.419Z,50.20
2019-02-22T09:33:49.394Z,50.90
2019-02-22T09:34:49.374Z,50.00
2019-02-22T09:35:49.342Z,52.20
2019-02-22T09:36:49.321Z,51.00
2019-02-22T09:37:49.298Z,52.80
2019-02-22T09:38:49.277Z,53.00
2019-02-22T09:39:49.254Z,51.90
2019-02-22T09:40:49.232Z,49.10
2019-02-22T09:41:49.212Z,48.70
2019-02-22T09:42:49.194Z,49.50
2019-02-22T09:43:55.079Z,46.10
2019-02-22T09:44:49.144Z,49.20
2019-02-22T09:45:49.123Z,49.70
2019-02-22T09:46:49.101Z,49.00
2019-02-22T09:47:49.078Z,49.00
2019-02-22T09:48:49.068Z,47.90
2019-02-22T09:49:49.036Z,49.00
2019-02-22T09:50:49.022Z,46.30
2019-02-22T09:51:49.007Z,44.00
2019-02-22T09:52:48.969Z,45.20
2019-02-22T09:53:48.946Z,44.40
2019-02-22T09:54:48.944Z,42.00
2019-02-22T09:55:48.903Z,43.00
2019-02-22T09:56:50.841Z,42.50
2019-02-22T09:57:48.861Z,43.50
2019-02-22T09:58:48.839Z,44.60
2019-02-22T09:59:48.815Z,41.00
2019-02-22T10:00:48.796Z,43.80
2019-02-22T10:01:48.770Z,42.50
2019-02-22T10:02:48.756Z,42.30
2019-02-22T10:03:48.728Z,42.10
2019-02-22T10:04:55.043Z,41.70
2019-02-22T10:05:48.691Z,42.60
2019-02-22T10:06:48.661Z,41.90
2019-02-22T10:07:48.641Z,41.20
2019-02-22T10:08:48.617Z,42.50
2019-02-22T10:09:48.596Z,38.80
2019-02-22T10:10:48.573Z,39.20
2019-02-22T10:11:48.559Z,40.80
2019-02-22T10:12:48.530Z,38.60
2019-02-22T10:13:48.508Z,37.50
2019-02-22T10:14:48.487Z,36.00
2019-02-22T10:15:48.468Z,36.80
2019-02-22T10:16:48.445Z,41.10
2019-02-22T10:17:48.420Z,39.60
2019-02-22T10:18:48.405Z,38.60
2019-02-22T10:19:48.378Z,37.90
2019-02-22T10:20:48.355Z,37.80
2019-02-22T10:21:48.334Z,38.00
2019-02-22T10:22:48.317Z,38.10
2019-02-22T10:23:48.289Z,39.50
2019-02-22T10:24:48.274Z,40.60
2019-02-22T10:25:48.246Z,39.30
2019-02-22T10:26:48.228Z,37.60
2019-02-22T10:27:48.206Z,35.70
2019-02-22T10:28:48.180Z,37.40
2019-02-22T10:29:48.160Z,39.00
2019-02-22T10:30:48.158Z,38.60
2019-02-22T10:31:48.120Z,36.70
2019-02-22T10:32:48.094Z,38.00
2019-02-22T10:33:48.072Z,41.80
2019-02-22T10:34:48.048Z,37.30
2019-02-22T10:35:48.029Z,38.30
2019-02-22T10:36:48.109Z,38.10
2019-02-22T10:37:48.048Z,37.50
2019-02-22T10:38:48.110Z,37.40
2019-02-22T10:39:47.941Z,37.50
2019-02-22T10:40:48.123Z,36.80
2019-02-22T10:41:48.081Z,36.20
2019-02-22T10:42:48.081Z,36.30
2019-02-22T10:43:48.070Z,32.30
2019-02-22T10:44:47.839Z,35.70
2019-02-22T10:45:48.149Z,36.80
2019-02-22T10:46:47.791Z,35.80
2019-02-22T10:47:48.073Z,35.10
2019-02-22T10:48:47.819Z,36.80
2019-02-22T10:49:47.727Z,34.00
2019-02-22T10:50:47.704Z,33.50
2019-02-22T10:51:47.680Z,33.30
2019-02-22T10:52:47.665Z,32.10
2019-02-22T10:53:47.646Z,32.90
2019-02-22T10:54:47.620Z,33.70
2019-02-22T10:55:47.595Z,35.80
2019-02-22T10:56:47.575Z,33.20
2019-02-22T10:57:47.558Z,35.20
2019-02-22T10:58:47.533Z,33.40
2019-02-22T10:59:47.513Z,34.60
2019-02-22T11:00:47.490Z,36.50
2019-02-22T11:01:47.479Z,36.40
2019-02-22T11:02:47.444Z,33.20
2019-02-22T11:03:47.423Z,32.70
2019-02-22T11:04:47.410Z,33.70
2019-02-22T11:05:47.380Z,32.80
2019-02-22T11:06:47.357Z,34.20
2019-02-22T11:07:47.337Z,34.20
2019-02-22T11:08:47.316Z,31.70
2019-02-22T11:09:47.296Z,33.60
2019-02-22T11:10:47.276Z,31.40
2019-02-22T11:11:47.254Z,32.70
2019-02-22T11:12:47.245Z,32.30
2019-02-22T11:13:47.227Z,32.00
2019-02-22T11:14:47.195Z,33.50
2019-02-22T11:15:47.168Z,32.90
2019-02-22T11:16:47.150Z,32.60
2019-02-22T11:17:47.123Z,31.60
2019-02-22T11:18:47.146Z,33.10
2019-02-22T11:19:47.084Z,33.00
2019-02-22T11:20:47.060Z,31.60
2019-02-22T11:21:47.039Z,34.00
2019-02-22T11:22:47.067Z,34.10
2019-02-22T11:23:46.997Z,34.40
2019-02-22T11:24:46.990Z,31.60
2019-02-22T11:25:46.953Z,32.10
2019-02-22T11:26:46.933Z,33.30
2019-02-22T11:27:47.151Z,33.50
2019-02-22T11:28:47.146Z,31.50
2019-02-22T11:29:49.192Z,30.50
2019-02-22T11:30:47.111Z,31.50
2019-02-22T11:31:47.049Z,32.10
2019-02-22T11:32:46.804Z,32.90
2019-02-22T11:33:47.037Z,32.50
2019-02-22T11:34:46.762Z,33.20
2019-02-22T11:35:47.051Z,33.40
2019-02-22T11:36:46.721Z,31.20
2019-02-22T11:37:46.702Z,31.30
2019-02-22T11:38:46.683Z,30.50
2019-02-22T11:39:46.661Z,30.00
2019-02-22T11:40:46.635Z,30.10
2019-02-22T11:41:46.615Z,31.80
2019-02-22T11:42:46.593Z,31.30
2019-02-22T11:43:46.571Z,30.10
2019-02-22T11:44:46.553Z,31.00
2019-02-22T11:45:46.551Z,29.70
2019-02-22T11:46:46.509Z,32.40
2019-02-22T11:47:46.498Z,31.30
2019-02-22T11:48:46.468Z,29.90
2019-02-22T11:49:46.450Z,30.40
2019-02-22T11:50:46.440Z,29.60
2019-02-22T11:51:46.406Z,30.50
2019-02-22T11:52:46.391Z,28.20
2019-02-22T11:53:46.366Z,29.10
2019-02-22T11:54:46.340Z,28.60
2019-02-22T11:55:46.319Z,28.30
2019-02-22T11:56:46.299Z,29.60
2019-02-22T11:57:46.278Z,28.60
2019-02-22T11:58:46.255Z,28.80
2019-02-22T11:59:46.236Z,27.50
2019-02-22T12:00:46.222Z,28.30
2019-02-22T12:01:46.205Z,27.20
2019-02-22T12:02:46.173Z,25.80
2019-02-22T12:03:46.152Z,26.30
2019-02-22T12:04:46.135Z,28.00
2019-02-22T12:05:46.109Z,27.90
2019-02-22T12:06:46.092Z,29.50
2019-02-22T12:07:46.070Z,30.10
2019-02-22T12:08:46.050Z,29.00
2019-02-22T12:09:46.044Z,28.30
2019-02-22T12:10:46.062Z,27.20
2019-02-22T12:11:45.984Z,26.00
2019-02-22T12:12:45.965Z,28.20
2019-02-22T12:13:45.943Z,28.10
2019-02-22T12:14:51.596Z,27.20
2019-02-22T12:15:46.065Z,26.50
2019-02-22T12:16:45.878Z,26.80
2019-02-22T12:17:45.862Z,26.50
2019-02-22T12:18:45.842Z,23.10
2019-02-22T12:19:45.826Z,23.90
2019-02-22T12:20:45.803Z,23.40
2019-02-22T12:21:46.118Z,25.20
2019-02-22T12:22:45.760Z,26.30
2019-02-22T12:23:45.733Z,29.30
2019-02-22T12:24:45.720Z,27.50
2019-02-22T12:25:45.698Z,27.50
2019-02-22T12:26:45.671Z,26.70
2019-02-22T12:27:45.647Z,25.20
2019-02-22T12:28:45.634Z,24.50
2019-02-22T12:29:45.618Z,26.00
2019-02-22T12:30:45.589Z,25.20
2019-02-22T12:31:45.573Z,25.50
2019-02-22T12:32:45.543Z,25.40
2019-02-22T12:33:45.528Z,25.20
2019-02-22T12:34:45.514Z,23.00
2019-02-22T12:35:45.494Z,22.40
2019-02-22T12:36:45.462Z,23.00
2019-02-22T12:37:45.438Z,21.50
2019-02-22T12:38:45.429Z,23.10
2019-02-22T12:39:45.402Z,21.90
2019-02-22T12:40:45.377Z,22.90
2019-02-22T12:41:45.358Z,23.20
2019-02-22T12:42:45.334Z,23.40
2019-02-22T12:43:45.327Z,24.70
2019-02-22T12:44:45.294Z,24.70
2019-02-22T12:45:45.271Z,22.90
2019-02-22T12:46:45.250Z,22.10
2019-02-22T12:47:45.240Z,23.10
2019-02-22T12:48:45.207Z,22.00
2019-02-22T12:49:45.189Z,22.80
2019-02-22T12:50:45.166Z,22.70
2019-02-22T12:51:45.155Z,23.50